Time,TemperatureF,DewpointF,PressureIn,WindDirection,WindDirectionDegrees,WindSpeedMPH,WindSpeedGustMPH,Humidity,HourlyPrecipIn,Conditions,Clouds,dailyrainin,SoftwareType,DateUTC
2013-04-28 00:01:00,60.4,40.6,30.00,ESE,112,6.9,6.9,48,0.00,CLR,,0.00,WeatherDisplay:10.37,2013-04-28 04:01:00,
2013-04-28 00:02:00,60.4,40.6,30.00,ESE,112,6.9,6.9,48,0.00,CLR,,0.00,WeatherDisplay:10.37,2013-04-28 04:02:00,
2013-04-28 00:04:00,60.3,40.5,30.00,SE,135,9.2,9.2,48,0.00,CLR,,0.00,WeatherDisplay:10.37,2013-04-28 04:04:00,
2013-04-28 00:09:00,60.1,40.9,30.00,ESE,112,6.9,6.9,49,0.00,CLR,,0.00,WeatherDisplay:10.37,2013-04-28 04:09:00,
2013-04-28 00:14:00,59.9,40.7,30.00,SE,135,6.3,6.3,49,0.00,CLR,,0.00,WeatherDisplay:10.37,2013-04-28 04:14:00,
2013-04-28 00:19:00,59.9,40.7,30.00,ESE,112,8.1,8.1,49,0.00,CLR,,0.00,WeatherDisplay:10.37,2013-04-28 04:19:00,
2013-04-28 00:24:00,59.9,40.7,30.00,SE,135,6.9,6.9,49,0.00,CLR,,0.00,WeatherDisplay:10.37,2013-04-28 04:24:00,
2013-04-28 00:29:00,59.5,40.8,30.00,ESE,112,5.8,5.8,50,0.00,CLR,,0.00,WeatherDisplay:10.37,2013-04-28 04:29:00,
2013-04-28 00:34:00,59.4,40.7,30.00,ESE,112,4.6,4.6,50,0.00,CLR,,0.00,WeatherDisplay:10.37,2013-04-28 04:34:00,
2013-04-28 00:39:00,59.2,41.1,30.00,ESE,112,4.6,4.6,51,0.00,CLR,,0.00,WeatherDisplay:10.37,2013-04-28 04:39:00,
2013-04-28 00:44:00,59.0,40.9,30.00,SE,135,4.6,4.6,51,0.00,CLR,,0.00,WeatherDisplay:10.37,2013-04-28 04:44:00,
2013-04-28 00:49:00,58.8,41.2,30.00,SE,135,4.6,4.6,52,0.00,CLR,,0.00,WeatherDisplay:10.37,2013-04-28 04:49:00,
2013-04-28 00:54:00,58.6,41.0,29.99,ESE,112,5.8,5.8,52,0.00,CLR,,0.00,WeatherDisplay:10.37,2013-04-28 04:54:00,
2013-04-28 00:59:00,58.5,40.9,29.99,ESE,112,3.5,3.6,52,0.00,CLR,,0.00,WeatherDisplay:10.37,2013-04-28 04:59:00,
2013-04-28 01:04:00,58.3,41.2,29.99,ESE,112,3.5,3.5,53,0.00,CLR,,0.00,WeatherDisplay:10.37,2013-04-28 05:04:00,
2013-04-28 01:09:00,58.1,41.0,29.99,East,90,3.7,3.7,53,0.00,CLR,,0.00,WeatherDisplay:10.37,2013-04-28 05:09:00,
2013-04-28 01:14:00,58.1,41.0,29.99,ESE,112,3.2,3.2,53,0.00,CLR,,0.00,WeatherDisplay:10.37,2013-04-28 05:14:00,
2013-04-28 01:19:00,57.9,41.3,29.99,ESE,112,4.6,4.6,54,0.00,CLR,,0.00,WeatherDisplay:10.37,2013-04-28 05:19:00,
2013-04-28 01:24:00,57.7,41.2,29.99,SE,135,4.6,4.6,54,0.00,CLR,,0.00,WeatherDisplay:10.37,2013-04-28 05:24:00,
2013-04-28 01:29:00,57.6,41.1,29.98,SSE,158,3.5,3.5,54,0.00,CLR,,0.00,WeatherDisplay:10.37,2013-04-28 05:29:00,
2013-04-28 01:34:00,57.6,41.5,29.98,SSW,202,3.5,3.5,55,0.00,CLR,,0.00,WeatherDisplay:10.37,2013-04-28 05:34:00,
2013-04-28 01:39:00,57.6,41.5,29.99,ESE,112,3.5,3.5,55,0.00,CLR,,0.00,WeatherDisplay:10.37,2013-04-28 05:39:00,
2013-04-28 01:44:00,57.6,41.5,29.99,ESE,112,3.5,3.5,55,0.00,CLR,,0.00,WeatherDisplay:10.37,2013-04-28 05:44:00,
2013-04-28 01:49:00,57.2,41.2,29.98,ESE,112,4.6,4.6,55,0.00,CLR,,0.00,WeatherDisplay:10.37,2013-04-28 05:49:00,
2013-04-28 01:54:00,57.2,41.6,29.98,ESE,112,4.6,4.6,56,0.00,CLR,,0.00,WeatherDisplay:10.37,2013-04-28 05:54:00,
2013-04-28 01:59:00,56.8,41.3,29.98,ESE,112,3.7,3.7,56,0.00,CLR,,0.00,WeatherDisplay:10.37,2013-04-28 05:59:00,
2013-04-28 02:04:00,57.0,41.4,29.99,ESE,112,4.2,4.2,56,0.00,CLR,,0.00,WeatherDisplay:10.37,2013-04-28 06:04:00,
2013-04-28 02:09:00,57.0,41.4,29.99,East,90,4.6,4.6,56,0.00,CLR,,0.00,WeatherDisplay:10.37,2013-04-28 06:09:00,
2013-04-28 02:14:00,56.8,41.3,29.99,SSE,158,3.7,3.7,56,0.00,CLR,,0.00,WeatherDisplay:10.37,2013-04-28 06:14:00,
2013-04-28 02:19:00,56.8,41.3,29.99,SSE,158,4.2,4.2,56,0.00,CLR,,0.00,WeatherDisplay:10.37,2013-04-28 06:19:00,
2013-04-28 02:24:00,56.8,41.3,29.99,SSE,158,4.7,4.7,56,0.00,CLR,,0.00,WeatherDisplay:10.37,2013-04-28 06:24:00,
2013-04-28 02:29:00,56.8,41.3,29.99,ESE,112,4.6,4.6,56,0.00,CLR,,0.00,WeatherDisplay:10.37,2013-04-28 06:29:00,
2013-04-28 02:34:00,56.7,41.2,29.99,SE,135,4.6,4.6,56,0.00,CLR,,0.00,WeatherDisplay:10.37,2013-04-28 06:34:00,
2013-04-28 02:39:00,56.7,41.2,29.98,SE,135,5.8,5.8,56,0.00,CLR,,0.00,WeatherDisplay:10.37,2013-04-28 06:39:00,
2013-04-28 02:44:00,56.7,41.2,29.98,East,90,4.6,4.6,56,0.00,CLR,,0.00,WeatherDisplay:10.37,2013-04-28 06:44:00,
2013-04-28 02:49:00,56.7,41.2,29.97,ESE,112,5.8,5.8,56,0.00,CLR,,0.00,WeatherDisplay:10.37,2013-04-28 06:49:00,
2013-04-28 02:54:00,56.7,41.6,29.97,ESE,112,5.8,5.8,57,0.00,CLR,,0.00,WeatherDisplay:10.37,2013-04-28 06:54:00,
2013-04-28 02:59:00,57.0,41.9,29.97,ESE,112,6.9,6.9,57,0.00,CLR,,0.00,WeatherDisplay:10.37,2013-04-28 06:59:00,
2013-04-28 03:04:00,57.0,41.4,29.97,ESE,112,5.8,5.9,56,0.00,CLR,,0.00,WeatherDisplay:10.37,2013-04-28 07:04:00,
2013-04-28 03:09:00,56.8,41.3,29.97,SSE,158,8.8,8.8,56,0.00,CLR,,0.00,WeatherDisplay:10.37,2013-04-28 07:09:00,
2013-04-28 03:14:00,57.0,41.4,29.96,ESE,112,6.8,6.8,56,0.00,CLR,,0.00,WeatherDisplay:10.37,2013-04-28 07:14:00,
2013-04-28 03:19:00,57.2,41.6,29.96,ESE,112,8.1,8.1,56,0.00,CLR,,0.00,WeatherDisplay:10.37,2013-04-28 07:19:00,
2013-04-28 03:24:00,57.4,41.8,29.96,SE,135,6.9,6.9,56,0.00,CLR,,0.00,WeatherDisplay:10.37,2013-04-28 07:24:00,
2013-04-28 03:29:00,57.2,41.6,29.96,SE,135,5.8,5.8,56,0.00,CLR,,0.00,WeatherDisplay:10.37,2013-04-28 07:29:00,
2013-04-28 03:34:00,57.2,41.6,29.96,SSE,158,7.3,7.3,56,0.00,CLR,,0.00,WeatherDisplay:10.37,2013-04-28 07:34:00,
2013-04-28 03:39:00,57.0,41.4,29.96,ESE,112,5.8,5.8,56,0.00,CLR,,0.00,WeatherDisplay:10.37,2013-04-28 07:39:00,
2013-04-28 03:44:00,57.0,41.4,29.96,SE,135,5.8,5.8,56,0.00,CLR,,0.00,WeatherDisplay:10.37,2013-04-28 07:44:00,
2013-04-28 03:49:00,56.8,41.7,29.96,ESE,112,6.3,6.3,57,0.00,CLR,,0.00,WeatherDisplay:10.37,2013-04-28 07:49:00,
2013-04-28 03:54:00,56.8,41.7,29.96,ESE,112,4.7,4.7,57,0.00,CLR,,0.00,WeatherDisplay:10.37,2013-04-28 07:54:00,
2013-04-28 03:59:00,56.7,41.6,29.96,SSE,158,6.3,6.3,57,0.00,CLR,,0.00,WeatherDisplay:10.37,2013-04-28 07:59:00,
2013-04-28 04:04:00,56.8,41.7,29.96,SE,135,8.1,8.1,57,0.00,CLR,,0.00,WeatherDisplay:10.37,2013-04-28 08:04:00,
2013-04-28 04:09:00,56.8,41.7,29.96,ESE,112,6.9,6.9,57,0.00,CLR,,0.00,WeatherDisplay:10.37,2013-04-28 08:09:00,
2013-04-28 04:14:00,56.8,41.7,29.95,SE,135,5.8,5.8,57,0.00,CLR,,0.00,WeatherDisplay:10.37,2013-04-28 08:14:00,
2013-04-28 04:19:00,56.8,41.7,29.95,ESE,112,6.9,6.9,57,0.00,CLR,,0.00,WeatherDisplay:10.37,2013-04-28 08:19:00,
2013-04-28 04:24:00,57.0,41.9,29.95,SSE,158,8.1,8.1,57,0.00,CLR,,0.00,WeatherDisplay:10.37,2013-04-28 08:24:00,
2013-04-28 04:29:00,56.8,41.7,29.95,ESE,112,6.9,6.9,57,0.00,CLR,,0.00,WeatherDisplay:10.37,2013-04-28 08:29:00,
2013-04-28 04:34:00,56.8,41.7,29.95,ESE,112,8.3,8.3,57,0.00,CLR,,0.00,WeatherDisplay:10.37,2013-04-28 08:34:00,
2013-04-28 04:39:00,56.8,41.7,29.94,SSE,158,6.9,6.9,57,0.00,CLR,,0.00,WeatherDisplay:10.37,2013-04-28 08:39:00,
2013-04-28 04:44:00,56.5,41.4,29.94,SSE,158,6.9,6.9,57,0.00,CLR,,0.00,WeatherDisplay:10.37,2013-04-28 08:44:00,
2013-04-28 04:49:00,56.3,41.7,29.94,ESE,112,6.3,6.3,58,0.00,CLR,,0.00,WeatherDisplay:10.37,2013-04-28 08:49:00,
2013-04-28 04:54:00,56.3,41.7,29.94,SSE,158,6.8,6.8,58,0.00,CLR,,0.00,WeatherDisplay:10.37,2013-04-28 08:54:00,
2013-04-28 04:59:00,56.3,41.7,29.94,SSE,158,5.8,5.8,58,0.00,CLR,,0.00,WeatherDisplay:10.37,2013-04-28 08:59:00,
2013-04-28 05:04:00,56.3,41.7,29.95,ESE,112,6.9,6.9,58,0.00,CLR,,0.00,WeatherDisplay:10.37,2013-04-28 09:04:00,
2013-04-28 05:09:00,56.5,41.9,29.95,ESE,112,9.2,9.2,58,0.00,CLR,,0.00,WeatherDisplay:10.37,2013-04-28 09:09:00,
2013-04-28 05:14:00,56.7,42.1,29.95,SSE,158,8.1,8.1,58,0.00,CLR,,0.00,WeatherDisplay:10.37,2013-04-28 09:14:00,
2013-04-28 05:19:00,56.3,41.7,29.95,South,180,6.9,6.9,58,0.00,CLR,,0.00,WeatherDisplay:10.37,2013-04-28 09:19:00,
2013-04-28 05:24:00,56.3,41.7,29.95,SE,135,5.8,5.8,58,0.00,CLR,,0.00,WeatherDisplay:10.37,2013-04-28 09:24:00,
2013-04-28 05:29:00,56.3,41.7,29.95,SE,135,6.3,6.3,58,0.00,CLR,,0.00,WeatherDisplay:10.37,2013-04-28 09:29:00,
2013-04-28 05:34:00,56.1,42.0,29.95,SSE,158,5.8,5.8,59,0.00,CLR,,0.00,WeatherDisplay:10.37,2013-04-28 09:34:00,
2013-04-28 05:39:00,55.9,42.2,29.94,ESE,112,4.7,4.7,60,0.00,CLR,,0.00,WeatherDisplay:10.37,2013-04-28 09:39:00,
2013-04-28 05:44:00,55.8,42.1,29.94,ESE,112,4.6,4.6,60,0.00,CLR,,0.00,WeatherDisplay:10.37,2013-04-28 09:44:00,
2013-04-28 05:49:00,55.4,41.7,29.94,ESE,112,4.7,4.7,60,0.00,CLR,,0.00,WeatherDisplay:10.37,2013-04-28 09:49:00,
2013-04-28 05:54:00,55.4,42.2,29.95,SE,135,5.8,5.8,61,0.00,CLR,,0.00,WeatherDisplay:10.37,2013-04-28 09:54:00,
2013-04-28 05:59:00,55.2,42.0,29.95,ESE,112,6.9,6.9,61,0.00,CLR,,0.00,WeatherDisplay:10.37,2013-04-28 09:59:00,
2013-04-28 06:04:00,55.2,42.0,29.94,ESE,112,8.3,8.3,61,0.00,BKN,,0.00,WeatherDisplay:10.37,2013-04-28 10:04:00,
2013-04-28 06:09:00,55.4,42.2,29.94,ESE,112,6.3,6.3,61,0.00,BKN,,0.00,WeatherDisplay:10.37,2013-04-28 10:09:00,
2013-04-28 06:14:00,55.6,42.4,29.95,SE,135,9.2,9.2,61,0.00,BKN,,0.00,WeatherDisplay:10.37,2013-04-28 10:14:00,
2013-04-28 06:19:00,55.6,42.4,29.95,SE,135,8.1,8.1,61,0.00,BKN,,0.00,WeatherDisplay:10.37,2013-04-28 10:19:00,
2013-04-28 06:24:00,55.9,42.6,29.95,SSE,158,8.1,8.1,61,0.00,BKN,,0.00,WeatherDisplay:10.37,2013-04-28 10:24:00,
2013-04-28 06:29:00,55.9,42.6,29.94,ESE,112,8.1,8.1,61,0.00,BKN,,0.00,WeatherDisplay:10.37,2013-04-28 10:29:00,
2013-04-28 06:34:00,56.1,42.8,29.94,SE,135,9.2,9.2,61,0.00,BKN,,0.00,WeatherDisplay:10.37,2013-04-28 10:34:00,
2013-04-28 06:39:00,56.3,42.6,29.94,ESE,112,8.1,8.1,60,0.00,BKN,,0.00,WeatherDisplay:10.37,2013-04-28 10:39:00,
2013-04-28 06:44:00,56.5,42.8,29.94,SSE,158,9.2,9.2,60,0.00,BKN,,0.00,WeatherDisplay:10.37,2013-04-28 10:44:00,
2013-04-28 06:49:00,56.7,43.0,29.94,South,180,5.8,5.8,60,0.00,BKN,,0.00,WeatherDisplay:10.37,2013-04-28 10:49:00,
2013-04-28 06:54:00,56.5,42.8,29.94,SE,135,5.8,5.8,60,0.00,BKN,,0.00,WeatherDisplay:10.37,2013-04-28 10:54:00,
2013-04-28 06:59:00,56.5,42.8,29.94,ESE,112,6.3,6.3,60,0.00,BKN,,0.00,WeatherDisplay:10.37,2013-04-28 10:59:00,
2013-04-28 07:04:00,56.5,42.8,29.94,ESE,112,6.8,6.8,60,0.00,BKN,,0.00,WeatherDisplay:10.37,2013-04-28 11:04:00,
2013-04-28 07:09:00,56.1,42.8,29.94,ESE,112,5.8,5.8,61,0.00,BKN,,0.00,WeatherDisplay:10.37,2013-04-28 11:09:00,
2013-04-28 07:14:00,56.1,43.3,29.94,ESE,112,5.8,5.8,62,0.00,BKN,,0.00,WeatherDisplay:10.37,2013-04-28 11:14:00,
2013-04-28 07:19:00,56.3,43.0,29.94,ESE,112,6.3,6.3,61,0.00,BKN,,0.00,WeatherDisplay:10.37,2013-04-28 11:19:00,
2013-04-28 07:24:00,56.5,43.2,29.94,ESE,112,5.8,5.8,61,0.00,BKN,,0.00,WeatherDisplay:10.37,2013-04-28 11:24:00,
2013-04-28 07:29:00,56.8,43.5,29.94,SE,135,9.2,9.2,61,0.00,BKN,,0.00,WeatherDisplay:10.37,2013-04-28 11:29:00,
2013-04-28 07:34:00,57.2,43.4,29.94,SE,135,11.5,11.5,60,0.00,BKN,,0.00,WeatherDisplay:10.37,2013-04-28 11:34:00,
2013-04-28 07:39:00,57.4,43.6,29.93,ESE,112,9.4,9.4,60,0.00,BKN,,0.00,WeatherDisplay:10.37,2013-04-28 11:39:00,
2013-04-28 07:44:00,57.4,43.6,29.93,ESE,112,9.2,9.2,60,0.00,BKN,,0.00,WeatherDisplay:10.37,2013-04-28 11:44:00,
2013-04-28 07:49:00,57.7,43.9,29.93,ESE,112,9.2,9.2,60,0.00,BKN,,0.00,WeatherDisplay:10.37,2013-04-28 11:49:00,
2013-04-28 07:54:00,57.7,43.9,29.93,SSE,158,8.1,8.1,60,0.00,BKN,,0.00,WeatherDisplay:10.37,2013-04-28 11:54:00,
2013-04-28 07:59:00,57.9,44.1,29.93,ESE,112,10.4,10.4,60,0.00,BKN,,0.00,WeatherDisplay:10.37,2013-04-28 11:59:00,
2013-04-28 08:04:00,58.1,43.8,29.94,ESE,112,9.2,9.2,59,0.00,SCT,,0.00,WeatherDisplay:10.37,2013-04-28 12:04:00,
2013-04-28 08:09:00,58.5,44.2,29.94,ESE,112,9.2,9.2,59,0.00,SCT,,0.00,WeatherDisplay:10.37,2013-04-28 12:09:00,
2013-04-28 08:14:00,58.6,44.3,29.93,SE,135,5.8,5.8,59,0.00,SCT,,0.00,WeatherDisplay:10.37,2013-04-28 12:14:00,
2013-04-28 08:19:00,58.8,44.5,29.93,SE,135,8.1,8.1,59,0.00,SCT,,0.00,WeatherDisplay:10.37,2013-04-28 12:19:00,
2013-04-28 08:24:00,59.2,44.9,29.93,ENE,68,6.9,6.9,59,0.00,SCT,,0.00,WeatherDisplay:10.37,2013-04-28 12:24:00,
2013-04-28 08:29:00,59.4,45.1,29.93,West,270,10.4,10.4,59,0.00,SCT,,0.00,WeatherDisplay:10.37,2013-04-28 12:29:00,
2013-04-28 08:34:00,59.4,45.1,29.93,SSE,158,10.4,10.4,59,0.00,SCT,,0.00,WeatherDisplay:10.37,2013-04-28 12:34:00,
2013-04-28 08:39:00,59.5,45.2,29.93,ESE,112,10.4,10.4,59,0.00,SCT,,0.00,WeatherDisplay:10.37,2013-04-28 12:39:00,
2013-04-28 08:44:00,59.7,45.3,29.93,SSE,158,10.4,10.4,59,0.00,SCT,,0.00,WeatherDisplay:10.37,2013-04-28 12:44:00,
2013-04-28 08:49:00,59.7,45.3,29.93,WSW,248,16.1,16.1,59,0.00,SCT,,0.00,WeatherDisplay:10.37,2013-04-28 12:49:00,
2013-04-28 08:54:00,59.9,45.5,29.92,East,90,9.2,9.2,59,0.00,SCT,,0.00,WeatherDisplay:10.37,2013-04-28 12:54:00,
2013-04-28 08:59:00,59.7,45.3,29.92,SE,135,6.9,6.9,59,0.00,SCT,,0.00,WeatherDisplay:10.37,2013-04-28 12:59:00,
2013-04-28 09:04:00,59.7,45.3,29.92,South,180,8.1,8.1,59,0.00,OVC,,0.00,WeatherDisplay:10.37,2013-04-28 13:04:00,
2013-04-28 09:09:00,59.7,45.3,29.92,SSE,158,12.7,12.7,59,0.00,OVC,,0.00,WeatherDisplay:10.37,2013-04-28 13:09:00,
2013-04-28 09:14:00,59.9,45.5,29.93,SW,225,11.5,11.5,59,0.00,OVC,,0.00,WeatherDisplay:10.37,2013-04-28 13:14:00,
2013-04-28 09:19:00,59.9,45.5,29.93,SSE,158,10.4,10.4,59,0.00,OVC,,0.00,WeatherDisplay:10.37,2013-04-28 13:19:00,
2013-04-28 09:24:00,59.9,45.5,29.93,ESE,112,9.2,9.2,59,0.00,OVC,,0.00,WeatherDisplay:10.37,2013-04-28 13:24:00,
2013-04-28 09:29:00,59.9,45.5,29.92,East,90,9.2,9.2,59,0.00,OVC,,0.00,WeatherDisplay:10.37,2013-04-28 13:29:00,
2013-04-28 09:34:00,59.9,46.0,29.92,ESE,112,9.2,9.2,60,0.00,OVC,,0.00,WeatherDisplay:10.37,2013-04-28 13:34:00,
2013-04-28 09:39:00,59.9,46.0,29.92,SE,135,9.2,9.2,60,0.00,OVC,,0.00,WeatherDisplay:10.37,2013-04-28 13:39:00,
2013-04-28 09:44:00,59.9,46.0,29.92,ESE,112,5.8,5.8,60,0.00,OVC,,0.00,WeatherDisplay:10.37,2013-04-28 13:44:00,
2013-04-28 09:49:00,59.9,46.4,29.93,SSW,202,5.8,5.8,61,0.00,OVC,,0.00,WeatherDisplay:10.37,2013-04-28 13:49:00,
2013-04-28 09:54:00,59.9,46.4,29.93,South,180,6.9,6.9,61,0.00,OVC,,0.00,WeatherDisplay:10.37,2013-04-28 13:54:00,
2013-04-28 09:59:00,59.9,46.4,29.93,East,90,8.1,8.1,61,0.00,OVC,,0.00,WeatherDisplay:10.37,2013-04-28 13:59:00,
2013-04-28 10:04:00,59.9,46.4,29.93,East,90,6.8,6.8,61,0.00,OVC,,0.00,WeatherDisplay:10.37,2013-04-28 14:04:00,
2013-04-28 10:09:00,59.9,46.8,29.93,SSW,202,5.8,5.8,62,0.00,OVC,,0.00,WeatherDisplay:10.37,2013-04-28 14:09:00,
2013-04-28 10:14:00,59.4,47.6,29.93,NW,315,6.9,6.9,65,0.00,OVC,,0.00,WeatherDisplay:10.37,2013-04-28 14:14:00,
2013-04-28 10:19:00,59.0,48.1,29.93,ENE,68,5.8,5.8,67,0.00,OVC,,0.00,WeatherDisplay:10.37,2013-04-28 14:19:00,
2013-04-28 10:24:00,58.3,48.9,29.93,ESE,112,4.6,4.6,71,0.00,OVC,,0.00,WeatherDisplay:10.37,2013-04-28 14:24:00,
2013-04-28 10:29:00,57.9,48.9,29.94,SSW,202,8.1,8.1,72,0.00,OVC,,0.00,WeatherDisplay:10.37,2013-04-28 14:29:00,
2013-04-28 10:34:00,57.6,49.7,29.94,ESE,112,5.8,5.8,75,0.00,OVC,,0.00,WeatherDisplay:10.37,2013-04-28 14:34:00,
2013-04-28 10:39:00,57.2,50.1,29.94,SE,135,4.6,4.6,77,0.00,OVC,,0.00,WeatherDisplay:10.37,2013-04-28 14:39:00,
2013-04-28 10:44:00,56.8,50.4,29.94,ESE,112,3.5,3.5,79,0.00,OVC,,0.00,WeatherDisplay:10.37,2013-04-28 14:44:00,
2013-04-28 10:49:00,56.7,50.6,29.94,ESE,112,3.7,3.7,80,0.00,OVC,,0.00,WeatherDisplay:10.37,2013-04-28 14:49:00,
2013-04-28 10:54:00,56.5,50.7,29.94,NE,45,6.9,6.9,81,0.01,RA,,0.01,WeatherDisplay:10.37,2013-04-28 14:54:00,
2013-04-28 10:59:00,55.9,50.8,29.94,ESE,112,4.6,4.6,83,0.01,RA,,0.01,WeatherDisplay:10.37,2013-04-28 14:59:00,
2013-04-28 11:04:00,56.1,51.3,29.94,SSE,158,4.6,4.6,84,0.02,RA,,0.02,WeatherDisplay:10.37,2013-04-28 15:04:00,
2013-04-28 11:09:00,56.3,52.2,29.94,SSE,158,3.5,3.5,86,0.02,RA,,0.02,WeatherDisplay:10.37,2013-04-28 15:09:00,
2013-04-28 11:14:00,56.5,52.4,29.94,SE,135,4.6,4.6,86,0.02,OVC,,0.02,WeatherDisplay:10.37,2013-04-28 15:14:00,
2013-04-28 11:19:00,55.9,52.1,29.94,ENE,68,4.6,4.6,87,0.03,RA,,0.03,WeatherDisplay:10.37,2013-04-28 15:19:00,
2013-04-28 11:24:00,55.9,52.1,29.94,ESE,112,5.8,5.8,87,0.03,RA,,0.03,WeatherDisplay:10.37,2013-04-28 15:24:00,
2013-04-28 11:29:00,55.6,52.1,29.94,ESE,112,5.8,5.8,88,0.04,RA,,0.04,WeatherDisplay:10.37,2013-04-28 15:29:00,
2013-04-28 11:34:00,55.4,52.2,29.94,SW,225,8.1,8.1,89,0.04,-RA,,0.04,WeatherDisplay:10.37,2013-04-28 15:34:00,
2013-04-28 11:39:00,55.4,52.2,29.93,SSE,158,5.8,5.8,89,0.04,-RA,,0.04,WeatherDisplay:10.37,2013-04-28 15:39:00,
2013-04-28 11:44:00,55.0,52.1,29.93,SSE,158,9.2,9.2,90,0.05,-RA,,0.05,WeatherDisplay:10.37,2013-04-28 15:44:00,
2013-04-28 11:49:00,55.0,52.1,29.93,ESE,112,5.8,5.8,90,0.05,-RA,,0.05,WeatherDisplay:10.37,2013-04-28 15:49:00,
2013-04-28 11:54:00,55.0,52.1,29.93,SE,135,8.1,8.1,90,0.05,-RA,,0.06,WeatherDisplay:10.37,2013-04-28 15:54:00,
2013-04-28 11:59:00,54.9,52.3,29.93,SE,135,5.3,5.3,91,0.05,-RA,,0.06,WeatherDisplay:10.37,2013-04-28 15:59:00,
2013-04-28 12:04:00,54.9,52.6,29.93,East,90,9.2,9.2,92,0.05,-RA,,0.07,WeatherDisplay:10.37,2013-04-28 16:04:00,
2013-04-28 12:09:00,54.9,52.6,29.93,SE,135,6.3,6.3,92,0.06,-RA,,0.08,WeatherDisplay:10.37,2013-04-28 16:09:00,
2013-04-28 12:14:00,54.7,52.4,29.92,ESE,112,8.1,8.1,92,0.06,-RA,,0.08,WeatherDisplay:10.37,2013-04-28 16:14:00,
2013-04-28 12:19:00,54.7,52.7,29.92,SW,225,7.3,7.3,93,0.05,-RA,,0.08,WeatherDisplay:10.37,2013-04-28 16:19:00,
2013-04-28 12:24:00,54.7,52.4,29.92,SE,135,8.8,8.8,92,0.06,-RA,,0.09,WeatherDisplay:10.37,2013-04-28 16:24:00,
2013-04-28 12:29:00,54.7,52.4,29.92,ESE,112,5.8,5.8,92,0.05,-RA,,0.09,WeatherDisplay:10.37,2013-04-28 16:29:00,
2013-04-28 12:34:00,54.5,52.5,29.92,SSE,158,8.1,8.1,93,0.06,-RA,,0.10,WeatherDisplay:10.37,2013-04-28 16:34:00,
2013-04-28 12:39:00,54.3,52.3,29.91,SSE,158,10.4,10.4,93,0.07,-RA,,0.11,WeatherDisplay:10.37,2013-04-28 16:39:00,
2013-04-28 12:44:00,54.5,52.5,29.91,SE,135,6.9,6.9,93,0.06,-RA,,0.11,WeatherDisplay:10.37,2013-04-28 16:44:00,
2013-04-28 12:49:00,54.7,53.0,29.91,SE,135,6.9,6.9,94,0.07,-RA,,0.12,WeatherDisplay:10.37,2013-04-28 16:49:00,
2013-04-28 12:54:00,54.9,52.9,29.91,ESE,112,6.3,6.3,93,0.06,-RA,,0.12,WeatherDisplay:10.37,2013-04-28 16:54:00,
2013-04-28 12:59:00,55.0,53.0,29.91,ESE,112,7.3,7.3,93,0.06,-RA,,0.12,WeatherDisplay:10.37,2013-04-28 16:59:00,
2013-04-28 13:04:00,55.0,53.0,29.91,WNW,292,10.4,10.4,93,0.05,-RA,,0.12,WeatherDisplay:10.37,2013-04-28 17:04:00,
2013-04-28 13:09:00,54.9,52.9,29.91,ESE,112,5.8,5.8,93,0.05,-RA,,0.13,WeatherDisplay:10.37,2013-04-28 17:09:00,
2013-04-28 13:14:00,55.0,53.0,29.90,East,90,6.9,6.9,93,0.05,-RA,,0.13,WeatherDisplay:10.37,2013-04-28 17:14:00,
2013-04-28 13:19:00,55.0,53.0,29.90,SE,135,6.9,6.9,93,0.05,-RA,,0.13,WeatherDisplay:10.37,2013-04-28 17:19:00,
2013-04-28 13:24:00,55.0,53.0,29.90,SE,135,6.9,6.9,93,0.04,-RA,,0.13,WeatherDisplay:10.37,2013-04-28 17:24:00,
2013-04-28 13:29:00,55.2,53.2,29.90,SSE,158,11.4,11.4,93,0.04,-RA,,0.13,WeatherDisplay:10.37,2013-04-28 17:29:00,
2013-04-28 13:34:00,55.4,53.1,29.90,SE,135,9.4,9.4,92,0.03,-RA,,0.13,WeatherDisplay:10.37,2013-04-28 17:34:00,
2013-04-28 13:39:00,55.9,53.9,29.89,South,180,8.3,8.3,93,0.02,-RA,,0.13,WeatherDisplay:10.37,2013-04-28 17:39:00,
2013-04-28 13:44:00,55.9,53.3,29.89,SSE,158,8.1,8.1,91,0.03,-RA,,0.14,WeatherDisplay:10.37,2013-04-28 17:44:00,
2013-04-28 13:49:00,56.1,53.8,29.89,ESE,112,5.8,5.8,92,0.02,-RA,,0.14,WeatherDisplay:10.37,2013-04-28 17:49:00,
2013-04-28 13:54:00,56.3,53.7,29.89,SSW,202,5.8,5.8,91,0.02,-RA,,0.14,WeatherDisplay:10.37,2013-04-28 17:54:00,
2013-04-28 13:59:00,56.1,53.2,29.89,ESE,112,11.5,11.5,90,0.02,-RA,,0.14,WeatherDisplay:10.37,2013-04-28 17:59:00,
2013-04-28 14:04:00,56.1,53.2,29.88,ESE,112,14.5,14.5,90,0.02,-RA,,0.14,WeatherDisplay:10.37,2013-04-28 18:04:00,
2013-04-28 14:09:00,55.8,53.5,29.88,SSE,158,8.1,8.1,92,0.02,-RA,,0.15,WeatherDisplay:10.37,2013-04-28 18:09:00,
2013-04-28 14:14:00,55.6,53.3,29.88,SE,135,10.4,10.4,92,0.03,-RA,,0.16,WeatherDisplay:10.37,2013-04-28 18:14:00,
2013-04-28 14:19:00,55.2,52.6,29.88,ESE,112,13.8,13.8,91,0.03,-RA,,0.16,WeatherDisplay:10.37,2013-04-28 18:19:00,
2013-04-28 14:24:00,55.0,52.7,29.88,ESE,112,11.5,11.5,92,0.03,-RA,,0.16,WeatherDisplay:10.37,2013-04-28 18:24:00,
2013-04-28 14:29:00,55.0,52.7,29.88,SSE,158,10.9,10.9,92,0.03,-RA,,0.16,WeatherDisplay:10.37,2013-04-28 18:29:00,
2013-04-28 14:34:00,55.0,52.7,29.88,SE,135,6.3,6.3,92,0.03,-RA,,0.16,WeatherDisplay:10.37,2013-04-28 18:34:00,
2013-04-28 14:39:00,55.0,52.4,29.87,SE,135,10.4,10.4,91,0.03,-RA,,0.16,WeatherDisplay:10.37,2013-04-28 18:39:00,
2013-04-28 14:44:00,55.2,52.3,29.87,SSE,158,13.0,13.0,90,0.02,-RA,,0.16,WeatherDisplay:10.37,2013-04-28 18:44:00,
2013-04-28 14:49:00,55.4,52.2,29.86,SE,135,16.1,16.1,89,0.02,-RA,,0.16,WeatherDisplay:10.37,2013-04-28 18:49:00,
2013-04-28 14:54:00,55.4,52.2,29.86,SSE,158,13.8,13.8,89,0.02,-RA,,0.16,WeatherDisplay:10.37,2013-04-28 18:54:00,
2013-04-28 14:59:00,55.4,52.2,29.86,South,180,10.4,10.4,89,0.02,-RA,,0.16,WeatherDisplay:10.37,2013-04-28 18:59:00,
2013-04-28 15:04:00,55.4,52.2,29.86,South,180,11.5,11.5,89,0.02,OVC,,0.16,WeatherDisplay:10.37,2013-04-28 19:04:00,
2013-04-28 15:09:00,55.4,52.2,29.86,SE,135,10.4,10.4,89,0.01,OVC,,0.16,WeatherDisplay:10.37,2013-04-28 19:09:00,
2013-04-28 15:14:00,55.4,52.2,29.86,SSE,158,8.8,8.8,89,0.00,OVC,,0.16,WeatherDisplay:10.37,2013-04-28 19:14:00,
2013-04-28 15:19:00,55.6,52.4,29.86,South,180,6.9,6.9,89,0.00,OVC,,0.16,WeatherDisplay:10.37,2013-04-28 19:19:00,
2013-04-28 15:24:00,55.8,52.3,29.86,SSW,202,6.9,6.9,88,0.00,OVC,,0.16,WeatherDisplay:10.37,2013-04-28 19:24:00,
2013-04-28 15:29:00,56.1,52.3,29.85,SSE,158,11.5,11.5,87,0.00,OVC,,0.16,WeatherDisplay:10.37,2013-04-28 19:29:00,
2013-04-28 15:34:00,56.5,52.4,29.85,South,180,9.2,9.2,86,0.00,OVC,,0.16,WeatherDisplay:10.37,2013-04-28 19:34:00,
2013-04-28 15:39:00,56.8,52.3,29.85,South,180,11.5,11.5,85,0.00,OVC,,0.16,WeatherDisplay:10.37,2013-04-28 19:39:00,
2013-04-28 15:44:00,57.2,52.7,29.85,SW,225,9.9,9.9,85,0.00,OVC,,0.16,WeatherDisplay:10.37,2013-04-28 19:44:00,
2013-04-28 15:49:00,57.4,52.3,29.84,ESE,112,15.0,15.0,83,0.00,OVC,,0.16,WeatherDisplay:10.37,2013-04-28 19:49:00,
2013-04-28 15:54:00,57.4,52.3,29.84,ESE,112,6.9,6.9,83,0.00,OVC,,0.16,WeatherDisplay:10.37,2013-04-28 19:54:00,
2013-04-28 15:59:00,57.4,52.3,29.84,SSE,158,10.9,10.9,83,0.00,OVC,,0.16,WeatherDisplay:10.37,2013-04-28 19:59:00,
2013-04-28 16:04:00,57.6,52.1,29.83,SSW,202,10.4,10.4,82,0.00,OVC,,0.16,WeatherDisplay:10.37,2013-04-28 20:04:00,
2013-04-28 16:09:00,57.7,51.6,29.83,ESE,112,12.7,12.7,80,0.00,OVC,,0.16,WeatherDisplay:10.37,2013-04-28 20:09:00,
2013-04-28 16:14:00,57.9,52.1,29.83,ESE,112,6.3,6.3,81,0.00,OVC,,0.16,WeatherDisplay:10.37,2013-04-28 20:14:00,
2013-04-28 16:19:00,58.3,52.2,29.83,SE,135,10.4,10.4,80,0.00,OVC,,0.16,WeatherDisplay:10.37,2013-04-28 20:19:00,
2013-04-28 16:24:00,58.1,52.0,29.83,ESE,112,6.9,6.9,80,0.00,OVC,,0.16,WeatherDisplay:10.37,2013-04-28 20:24:00,
2013-04-28 16:29:00,58.1,52.0,29.83,NNE,22,5.8,5.8,80,0.00,OVC,,0.16,WeatherDisplay:10.37,2013-04-28 20:29:00,
2013-04-28 16:34:00,58.1,51.6,29.83,ESE,112,5.8,5.8,79,0.00,OVC,,0.16,WeatherDisplay:10.37,2013-04-28 20:34:00,
2013-04-28 16:39:00,57.9,51.4,29.83,ESE,112,6.9,6.9,79,0.00,OVC,,0.16,WeatherDisplay:10.37,2013-04-28 20:39:00,
2013-04-28 16:44:00,57.9,51.4,29.83,ESE,112,6.9,6.9,79,0.00,OVC,,0.16,WeatherDisplay:10.37,2013-04-28 20:44:00,
2013-04-28 16:49:00,57.7,51.6,29.82,ESE,112,9.2,9.2,80,0.00,OVC,,0.16,WeatherDisplay:10.37,2013-04-28 20:49:00,
2013-04-28 16:54:00,57.6,51.8,29.82,South,180,6.9,6.9,81,0.00,OVC,,0.16,WeatherDisplay:10.37,2013-04-28 20:54:00,
2013-04-28 16:59:00,57.6,51.5,29.82,ESE,112,10.4,10.4,80,0.00,OVC,,0.16,WeatherDisplay:10.37,2013-04-28 20:59:00,
2013-04-28 17:04:00,57.6,51.5,29.82,ESE,112,8.1,8.1,80,0.00,OVC,,0.16,WeatherDisplay:10.37,2013-04-28 21:04:00,
2013-04-28 17:09:00,57.6,51.1,29.82,SSE,158,11.5,11.5,79,0.00,OVC,,0.16,WeatherDisplay:10.37,2013-04-28 21:09:00,
2013-04-28 17:14:00,57.9,51.1,29.82,ESE,112,8.1,8.1,78,0.00,OVC,,0.16,WeatherDisplay:10.37,2013-04-28 21:14:00,
2013-04-28 17:19:00,58.1,51.3,29.82,SSE,158,9.9,9.9,78,0.00,OVC,,0.16,WeatherDisplay:10.37,2013-04-28 21:19:00,
2013-04-28 17:24:00,58.6,51.4,29.82,SE,135,9.2,9.2,77,0.00,OVC,,0.16,WeatherDisplay:10.37,2013-04-28 21:24:00,
2013-04-28 17:29:00,59.0,51.4,29.82,ESE,112,15.0,15.0,76,0.00,OVC,,0.16,WeatherDisplay:10.37,2013-04-28 21:29:00,
2013-04-28 17:34:00,59.2,51.6,29.82,SE,135,10.4,10.4,76,0.00,OVC,,0.16,WeatherDisplay:10.37,2013-04-28 21:34:00,
2013-04-28 17:39:00,59.4,51.5,29.81,South,180,9.4,9.4,75,0.00,OVC,,0.16,WeatherDisplay:10.37,2013-04-28 21:39:00,
2013-04-28 17:44:00,59.7,51.4,29.81,SSE,158,9.2,9.2,74,0.00,OVC,,0.16,WeatherDisplay:10.37,2013-04-28 21:44:00,
2013-04-28 17:49:00,60.4,51.7,29.81,South,180,16.1,16.1,73,0.00,OVC,,0.16,WeatherDisplay:10.37,2013-04-28 21:49:00,
2013-04-28 17:54:00,60.4,51.7,29.81,SE,135,10.4,10.4,73,0.00,OVC,,0.16,WeatherDisplay:10.37,2013-04-28 21:54:00,
2013-04-28 17:59:00,59.7,51.0,29.81,ESE,112,11.5,11.5,73,0.00,OVC,,0.16,WeatherDisplay:10.37,2013-04-28 21:59:00,
2013-04-28 18:04:00,59.5,50.8,29.82,South,180,10.4,10.4,73,0.00,BKN,,0.16,WeatherDisplay:10.37,2013-04-28 22:04:00,
2013-04-28 18:09:00,59.4,51.1,29.82,SSE,158,17.1,17.1,74,0.00,BKN,,0.16,WeatherDisplay:10.37,2013-04-28 22:09:00,
2013-04-28 18:14:00,59.4,51.1,29.81,SSE,158,13.8,13.8,74,0.00,BKN,,0.16,WeatherDisplay:10.37,2013-04-28 22:14:00,
2013-04-28 18:19:00,59.4,51.1,29.81,SE,135,9.2,9.2,74,0.00,BKN,,0.16,WeatherDisplay:10.37,2013-04-28 22:19:00,
2013-04-28 18:24:00,58.8,50.9,29.81,ESE,112,10.4,10.4,75,0.00,BKN,,0.16,WeatherDisplay:10.37,2013-04-28 22:24:00,
2013-04-28 18:29:00,58.8,50.9,29.80,South,180,10.4,10.4,75,0.00,BKN,,0.16,WeatherDisplay:10.37,2013-04-28 22:29:00,
2013-04-28 18:34:00,58.6,50.7,29.80,SE,135,9.2,9.2,75,0.00,BKN,,0.16,WeatherDisplay:10.37,2013-04-28 22:34:00,
2013-04-28 18:39:00,58.3,50.4,29.80,SSE,158,8.1,8.1,75,0.00,BKN,,0.16,WeatherDisplay:10.37,2013-04-28 22:39:00,
2013-04-28 18:44:00,58.1,50.2,29.80,ESE,112,13.8,13.8,75,0.00,BKN,,0.16,WeatherDisplay:10.37,2013-04-28 22:44:00,
2013-04-28 18:49:00,57.9,50.0,29.80,SE,135,7.3,7.3,75,0.00,BKN,,0.16,WeatherDisplay:10.37,2013-04-28 22:49:00,
2013-04-28 18:54:00,57.7,50.5,29.80,SSW,202,10.4,10.4,77,0.00,BKN,,0.16,WeatherDisplay:10.37,2013-04-28 22:54:00,
2013-04-28 18:59:00,56.8,51.0,29.80,ESE,112,8.1,8.1,81,0.00,BKN,,0.16,WeatherDisplay:10.37,2013-04-28 22:59:00,
2013-04-28 19:04:00,56.7,50.9,29.80,SSE,158,13.0,13.0,81,0.00,BKN,,0.16,WeatherDisplay:10.37,2013-04-28 23:04:00,
2013-04-28 19:09:00,56.5,51.1,29.80,SSE,158,8.1,8.1,82,0.00,BKN,,0.16,WeatherDisplay:10.37,2013-04-28 23:09:00,
2013-04-28 19:14:00,56.5,50.7,29.80,East,90,10.4,10.4,81,0.00,BKN,,0.16,WeatherDisplay:10.37,2013-04-28 23:14:00,
2013-04-28 19:19:00,56.5,50.7,29.80,SSE,158,11.5,11.5,81,0.00,BKN,,0.16,WeatherDisplay:10.37,2013-04-28 23:19:00,
2013-04-28 19:24:00,56.3,50.5,29.80,ESE,112,9.2,9.2,81,0.00,BKN,,0.16,WeatherDisplay:10.37,2013-04-28 23:24:00,
2013-04-28 19:29:00,56.3,50.5,29.80,SE,135,11.9,11.9,81,0.00,BKN,,0.16,WeatherDisplay:10.37,2013-04-28 23:29:00,
2013-04-28 19:34:00,56.1,50.3,29.80,SSW,202,15.0,15.0,81,0.00,-RA,,0.16,WeatherDisplay:10.37,2013-04-28 23:34:00,
2013-04-28 19:39:00,56.1,50.3,29.80,ESE,112,13.8,13.8,81,0.00,-RA,,0.16,WeatherDisplay:10.37,2013-04-28 23:39:00,
2013-04-28 19:44:00,56.1,50.3,29.80,ESE,112,9.2,9.2,81,0.00,-RA,,0.16,WeatherDisplay:10.37,2013-04-28 23:44:00,
2013-04-28 19:49:00,55.9,50.2,29.80,ESE,112,13.8,13.8,81,0.00,-RA,,0.16,WeatherDisplay:10.37,2013-04-28 23:49:00,
2013-04-28 19:54:00,55.9,50.2,29.80,ESE,112,10.4,10.4,81,0.00,-RA,,0.16,WeatherDisplay:10.37,2013-04-28 23:54:00,
2013-04-28 19:59:00,55.8,50.1,29.80,ESE,112,6.8,6.8,81,0.00,-RA,,0.16,WeatherDisplay:10.37,2013-04-28 23:59:00,
2013-04-28 20:04:00,55.6,49.9,29.81,South,180,9.2,9.2,81,0.00,BKN,,0.16,WeatherDisplay:10.37,2013-04-29 00:04:00,
2013-04-28 20:09:00,55.4,49.7,29.81,ESE,112,11.5,11.5,81,0.00,BKN,,0.16,WeatherDisplay:10.37,2013-04-29 00:09:00,
2013-04-28 20:14:00,55.4,49.7,29.82,ESE,112,11.5,11.5,81,0.00,BKN,,0.16,WeatherDisplay:10.37,2013-04-29 00:14:00,
2013-04-28 20:19:00,55.0,49.6,29.82,SSE,158,13.8,13.8,82,0.00,BKN,,0.16,WeatherDisplay:10.37,2013-04-29 00:19:00,
2013-04-28 20:24:00,55.0,49.6,29.82,ESE,112,8.1,8.1,82,0.00,BKN,,0.16,WeatherDisplay:10.37,2013-04-29 00:24:00,
2013-04-28 20:29:00,54.9,49.5,29.82,South,180,10.4,10.4,82,0.00,BKN,,0.16,WeatherDisplay:10.37,2013-04-29 00:29:00,
2013-04-28 20:34:00,54.9,49.5,29.82,SSE,158,7.8,8.4,82,0.00,BKN,,0.16,WeatherDisplay:10.37,2013-04-29 00:34:00,
2013-04-28 20:39:00,54.9,49.5,29.82,ENE,68,6.9,6.9,82,0.00,BKN,,0.16,WeatherDisplay:10.37,2013-04-29 00:39:00,
2013-04-28 20:44:00,54.9,49.5,29.82,East,90,10.4,10.4,82,0.00,BKN,,0.16,WeatherDisplay:10.37,2013-04-29 00:44:00,
2013-04-28 20:49:00,54.9,49.5,29.82,ESE,112,10.4,10.4,82,0.00,BKN,,0.16,WeatherDisplay:10.37,2013-04-29 00:49:00,
2013-04-28 20:54:00,54.9,49.5,29.82,ESE,112,8.3,8.3,82,0.00,BKN,,0.16,WeatherDisplay:10.37,2013-04-29 00:54:00,
2013-04-28 20:59:00,54.9,49.5,29.82,ESE,112,10.9,10.9,82,0.00,BKN,,0.16,WeatherDisplay:10.37,2013-04-29 00:59:00,
2013-04-28 21:04:00,54.9,49.5,29.82,ESE,112,10.4,10.4,82,0.00,OVC,,0.16,WeatherDisplay:10.37,2013-04-29 01:04:00,
2013-04-28 21:09:00,54.9,49.5,29.82,ESE,112,10.4,10.4,82,0.00,OVC,,0.16,WeatherDisplay:10.37,2013-04-29 01:09:00,
2013-04-28 21:14:00,54.9,49.5,29.83,East,90,8.1,8.1,82,0.00,OVC,,0.16,WeatherDisplay:10.37,2013-04-29 01:14:00,
2013-04-28 21:19:00,54.9,49.5,29.83,East,90,5.8,5.8,82,0.00,OVC,,0.16,WeatherDisplay:10.37,2013-04-29 01:19:00,
2013-04-28 21:25:00,54.9,49.5,29.83,ESE,119,7.0,9.0,82,0.00,OVC,,0.16,WeatherDisplay:10.37,2013-04-29 01:25:00,
2013-04-28 21:30:00,54.9,49.5,29.83,SE,138,7.0,12.0,82,0.00,OVC,,0.16,WeatherDisplay:10.37,2013-04-29 01:30:00,
2013-04-28 21:35:00,54.9,49.5,29.83,SE,134,9.0,12.0,82,0.00,OVC,,0.16,WeatherDisplay:10.37,2013-04-29 01:35:00,
2013-04-28 21:40:00,54.9,49.5,29.82,East,90,9.2,9.2,82,0.00,OVC,,0.16,WeatherDisplay:10.37,2013-04-29 01:40:00,
2013-04-28 21:45:00,54.7,49.3,29.82,ESE,112,9.2,9.2,82,0.00,OVC,,0.16,WeatherDisplay:10.37,2013-04-29 01:45:00,
2013-04-28 21:50:00,54.7,49.3,29.83,SE,135,6.8,6.8,82,0.00,OVC,,0.16,WeatherDisplay:10.37,2013-04-29 01:50:00,
2013-04-28 21:55:00,54.5,49.1,29.83,SE,135,6.9,6.9,82,0.00,OVC,,0.16,WeatherDisplay:10.37,2013-04-29 01:55:00,
2013-04-28 22:00:00,54.5,49.1,29.83,ESE,112,8.1,8.1,82,0.00,OVC,,0.16,WeatherDisplay:10.37,2013-04-29 02:00:00,
2013-04-28 22:05:00,54.5,49.1,29.83,ESE,112,7.8,7.8,82,0.00,OVC,,0.16,WeatherDisplay:10.37,2013-04-29 02:05:00,
2013-04-28 22:10:00,54.5,49.1,29.83,ESE,112,6.9,6.9,82,0.00,OVC,,0.16,WeatherDisplay:10.37,2013-04-29 02:10:00,
2013-04-28 22:15:00,54.5,49.1,29.83,East,90,10.4,10.4,82,0.00,OVC,,0.16,WeatherDisplay:10.37,2013-04-29 02:15:00,
2013-04-28 22:20:00,54.5,49.1,29.83,East,90,9.2,9.2,82,0.00,OVC,,0.16,WeatherDisplay:10.37,2013-04-29 02:20:00,
2013-04-28 22:25:00,54.5,49.1,29.83,ESE,112,6.9,6.9,82,0.00,OVC,,0.16,WeatherDisplay:10.37,2013-04-29 02:25:00,
2013-04-28 22:30:00,54.3,48.9,29.83,SSW,202,6.9,6.9,82,0.00,OVC,,0.16,WeatherDisplay:10.37,2013-04-29 02:30:00,
2013-04-28 22:35:00,54.3,48.9,29.83,SSE,158,9.9,9.9,82,0.00,OVC,,0.16,WeatherDisplay:10.37,2013-04-29 02:35:00,
2013-04-28 22:40:00,54.1,48.7,29.83,SE,135,5.8,5.8,82,0.00,OVC,,0.16,WeatherDisplay:10.37,2013-04-29 02:40:00,
2013-04-28 22:45:00,54.0,48.6,29.83,SE,135,8.1,8.1,82,0.00,OVC,,0.16,WeatherDisplay:10.37,2013-04-29 02:45:00,
2013-04-28 22:50:00,54.0,48.6,29.83,ESE,112,10.4,10.4,82,0.00,OVC,,0.16,WeatherDisplay:10.37,2013-04-29 02:50:00,
2013-04-28 22:55:00,54.0,48.6,29.83,ESE,112,6.9,6.9,82,0.00,OVC,,0.16,WeatherDisplay:10.37,2013-04-29 02:55:00,
2013-04-28 23:00:00,54.1,48.4,29.83,SE,135,6.9,6.9,81,0.00,OVC,,0.16,WeatherDisplay:10.37,2013-04-29 03:00:00,
2013-04-28 23:05:00,54.1,48.4,29.82,ESE,112,5.8,5.8,81,0.00,CLR,,0.16,WeatherDisplay:10.37,2013-04-29 03:05:00,
2013-04-28 23:10:00,54.1,48.4,29.82,SSE,158,5.8,5.8,81,0.00,CLR,,0.16,WeatherDisplay:10.37,2013-04-29 03:10:00,
2013-04-28 23:15:00,54.1,48.4,29.82,SE,135,6.9,6.9,81,0.00,CLR,,0.16,WeatherDisplay:10.37,2013-04-29 03:15:00,
2013-04-28 23:20:00,54.3,48.6,29.82,ESE,112,7.3,7.3,81,0.00,CLR,,0.16,WeatherDisplay:10.37,2013-04-29 03:20:00,
2013-04-28 23:25:00,54.5,48.5,29.82,SSE,158,5.8,5.8,80,0.00,CLR,,0.16,WeatherDisplay:10.37,2013-04-29 03:25:00,
2013-04-28 23:30:00,54.5,48.5,29.82,ESE,112,6.3,6.3,80,0.00,CLR,,0.16,WeatherDisplay:10.37,2013-04-29 03:30:00,
2013-04-28 23:35:00,54.5,48.5,29.82,SE,135,8.1,8.1,80,0.00,CLR,,0.16,WeatherDisplay:10.37,2013-04-29 03:35:00,
2013-04-28 23:40:00,54.3,48.3,29.82,ESE,112,5.3,5.3,80,0.00,CLR,,0.16,WeatherDisplay:10.37,2013-04-29 03:40:00,
2013-04-28 23:45:00,54.3,48.3,29.82,NNE,22,6.9,6.9,80,0.00,CLR,,0.16,WeatherDisplay:10.37,2013-04-29 03:45:00,
2013-04-28 23:50:00,54.1,48.1,29.82,SSE,158,6.9,6.9,80,0.00,CLR,,0.16,WeatherDisplay:10.37,2013-04-29 03:50:00,
2013-04-28 23:55:00,54.1,48.4,29.82,SE,135,7.3,7.3,81,0.00,CLR,,0.16,WeatherDisplay:10.37,2013-04-29 03:55:00,